createdAt,value
2022-09-26T00:00:55.006Z,6.25
2022-09-26T00:01:55.947Z,6.28
2022-09-26T00:02:54.946Z,6.30
2022-09-26T00:03:55.878Z,6.33
2022-09-26T00:04:55.852Z,6.38
2022-09-26T00:05:55.686Z,6.40
2022-09-26T00:06:54.865Z,6.43
2022-09-26T00:07:54.809Z,6.46
2022-09-26T00:08:54.834Z,6.50
2022-09-26T00:09:54.847Z,6.53
2022-09-26T00:10:54.812Z,6.58
2022-09-26T00:11:54.776Z,6.59
2022-09-26T00:12:54.776Z,6.61
2022-09-26T00:13:56.187Z,6.62
2022-09-26T00:14:55.588Z,6.65
2022-09-26T00:15:55.570Z,6.68
2022-09-26T00:16:54.781Z,6.72
2022-09-26T00:17:54.719Z,6.73
2022-09-26T00:18:55.515Z,6.73
2022-09-26T00:19:54.678Z,6.77
2022-09-26T00:20:54.798Z,6.77
2022-09-26T00:21:54.707Z,6.80
2022-09-26T00:22:54.803Z,6.83
2022-09-26T00:23:54.990Z,6.84
2022-09-26T00:24:54.607Z,6.87
2022-09-26T00:25:54.580Z,6.89
2022-09-26T00:26:54.721Z,6.94
2022-09-26T00:27:55.368Z,6.94
2022-09-26T00:28:55.529Z,6.98
2022-09-26T00:29:54.509Z,6.98
2022-09-26T00:30:56.024Z,7.02
2022-09-26T00:31:55.241Z,7.04
2022-09-26T00:32:55.402Z,7.05
2022-09-26T00:33:55.301Z,7.08
2022-09-26T00:34:55.201Z,7.15
2022-09-26T00:35:55.368Z,7.17
2022-09-26T00:36:55.272Z,7.17
2022-09-26T00:37:55.172Z,7.19
2022-09-26T00:38:54.369Z,7.22
2022-09-26T00:39:55.239Z,7.20
2022-09-26T00:40:55.220Z,7.19
2022-09-26T00:41:54.372Z,7.19
2022-09-26T00:42:54.356Z,7.16
2022-09-26T00:43:54.356Z,7.13
2022-09-26T00:44:54.316Z,7.09
2022-09-26T00:45:55.223Z,7.08
2022-09-26T00:46:54.272Z,7.07
2022-09-26T00:47:55.242Z,7.05
2022-09-26T00:48:55.141Z,7.04
2022-09-26T00:49:54.243Z,7.01
2022-09-26T00:50:55.206Z,6.99
2022-09-26T00:51:55.112Z,6.97
2022-09-26T00:52:54.228Z,6.94
2022-09-26T00:53:54.216Z,6.89
2022-09-26T00:54:55.076Z,6.89
2022-09-26T00:55:54.984Z,6.87
2022-09-26T00:56:54.883Z,6.89
2022-09-26T00:57:55.583Z,6.90
2022-09-26T00:58:54.146Z,6.89
2022-09-26T00:59:54.092Z,6.90
2022-09-26T01:00:54.263Z,6.90
2022-09-26T01:01:54.146Z,6.95
2022-09-26T01:02:54.828Z,6.97
2022-09-26T01:03:54.984Z,6.99
2022-09-26T01:04:54.015Z,7.01
2022-09-26T01:05:54.017Z,7.04
2022-09-26T01:06:54.959Z,7.05
2022-09-26T01:07:54.859Z,7.05
2022-09-26T01:08:55.446Z,7.07
2022-09-26T01:09:54.917Z,7.08
2022-09-26T01:10:54.827Z,7.09
2022-09-26T01:11:53.915Z,7.09
2022-09-26T01:12:53.952Z,7.12
2022-09-26T01:13:55.345Z,7.12
2022-09-26T01:14:54.696Z,7.09
2022-09-26T01:15:54.855Z,7.12
2022-09-26T01:16:54.784Z,7.13
2022-09-26T01:17:54.657Z,7.15
2022-09-26T01:18:53.865Z,7.15
2022-09-26T01:19:53.786Z,7.16
2022-09-26T01:20:53.817Z,7.17
2022-09-26T01:21:54.872Z,7.17
2022-09-26T01:22:53.784Z,7.19
2022-09-26T01:23:54.600Z,7.20
2022-09-26T01:24:55.189Z,7.22
2022-09-26T01:25:54.673Z,7.22
2022-09-26T01:26:54.574Z,7.23
2022-09-26T01:27:53.696Z,7.24
2022-09-26T01:28:54.629Z,7.24
2022-09-26T01:29:55.151Z,7.26
2022-09-26T01:30:54.485Z,7.26
2022-09-26T01:31:54.600Z,7.26
2022-09-26T01:32:53.650Z,7.26
2022-09-26T01:33:53.702Z,7.24
2022-09-26T01:34:54.589Z,7.24
2022-09-26T01:35:53.581Z,7.23
2022-09-26T01:36:53.571Z,7.22
2022-09-26T01:37:54.530Z,7.22
2022-09-26T01:38:53.551Z,7.20
2022-09-26T01:39:53.630Z,7.17
2022-09-26T01:40:53.595Z,7.13
2022-09-26T01:41:53.503Z,7.08
2022-09-26T01:42:53.491Z,7.04
2022-09-26T01:43:53.488Z,6.99
2022-09-26T01:44:54.396Z,6.97
2022-09-26T01:45:54.969Z,6.94
2022-09-26T01:46:54.181Z,6.90
2022-09-26T01:47:53.424Z,6.87
2022-09-26T01:48:53.493Z,6.87
2022-09-26T01:49:53.478Z,6.86
2022-09-26T01:50:53.394Z,6.84
2022-09-26T01:51:53.416Z,6.86
2022-09-26T01:52:53.374Z,6.86
2022-09-26T01:53:53.437Z,6.84
2022-09-26T01:54:53.352Z,6.86
2022-09-26T01:55:54.083Z,6.87
2022-09-26T01:56:54.245Z,6.89
2022-09-26T01:57:54.154Z,6.87
2022-09-26T01:58:53.298Z,6.87
2022-09-26T01:59:53.274Z,6.87
2022-09-26T02:00:53.284Z,6.87
2022-09-26T02:01:54.057Z,6.86
2022-09-26T02:02:54.183Z,6.87
2022-09-26T02:03:54.091Z,6.86
2022-09-26T02:04:53.207Z,6.87
2022-09-26T02:05:53.181Z,6.89
2022-09-26T02:06:54.055Z,6.90
2022-09-26T02:07:53.524Z,6.91
2022-09-26T02:08:54.122Z,6.91
2022-09-26T02:09:53.424Z,6.91
2022-09-26T02:10:53.108Z,6.90
2022-09-26T02:11:53.115Z,6.91
2022-09-26T02:12:53.096Z,6.91
2022-09-26T02:13:53.919Z,6.89
2022-09-26T02:14:53.067Z,6.89
2022-09-26T02:15:53.959Z,6.89
2022-09-26T02:16:53.115Z,6.86
2022-09-26T02:17:53.147Z,6.83
2022-09-26T02:18:53.054Z,6.81
2022-09-26T02:19:52.995Z,6.79
2022-09-26T02:20:53.000Z,6.77
2022-09-26T02:21:52.935Z,6.77
2022-09-26T02:22:52.940Z,6.73
2022-09-26T02:23:52.991Z,6.73
2022-09-26T02:24:52.939Z,6.73
2022-09-26T02:25:52.918Z,6.76
2022-09-26T02:26:52.907Z,6.79
2022-09-26T02:27:53.832Z,6.80
2022-09-26T02:28:53.738Z,6.83
2022-09-26T02:29:53.640Z,6.84
2022-09-26T02:30:53.801Z,6.87
2022-09-26T02:31:53.756Z,6.90
2022-09-26T02:32:52.803Z,6.97
2022-09-26T02:33:53.768Z,6.98
2022-09-26T02:34:53.678Z,6.99
2022-09-26T02:35:53.570Z,7.04
2022-09-26T02:36:53.854Z,7.05
2022-09-26T02:37:52.723Z,7.08
2022-09-26T02:38:53.540Z,7.12
2022-09-26T02:39:53.456Z,7.13
2022-09-26T02:40:52.981Z,7.16
2022-09-26T02:41:53.510Z,7.16
2022-09-26T02:42:53.670Z,7.17
2022-09-26T02:43:53.573Z,7.19
2022-09-26T02:44:53.482Z,7.22
2022-09-26T02:45:53.516Z,7.23
2022-09-26T02:46:53.543Z,7.24
2022-09-26T02:47:52.657Z,7.23
2022-09-26T02:48:53.354Z,7.23
2022-09-26T02:49:52.551Z,7.23
2022-09-26T02:50:53.425Z,7.22
2022-09-26T02:51:52.552Z,7.19
2022-09-26T02:52:52.972Z,7.17
2022-09-26T02:53:53.404Z,7.17
2022-09-26T02:54:53.058Z,7.15
2022-09-26T02:55:52.475Z,7.09
2022-09-26T02:56:53.395Z,7.09
2022-09-26T02:57:52.502Z,7.05
2022-09-26T02:58:52.486Z,7.04
2022-09-26T02:59:52.439Z,7.01
2022-09-26T03:00:53.271Z,6.98
2022-09-26T03:01:52.375Z,6.94
2022-09-26T03:02:52.634Z,6.90
2022-09-26T03:03:53.219Z,6.87
2022-09-26T03:04:52.449Z,6.87
2022-09-26T03:05:53.333Z,6.87
2022-09-26T03:06:53.157Z,6.87
2022-09-26T03:07:53.303Z,6.87
2022-09-26T03:08:53.224Z,6.87
2022-09-26T03:09:52.266Z,6.90
2022-09-26T03:10:53.028Z,6.94
2022-09-26T03:11:53.196Z,6.95
2022-09-26T03:12:53.103Z,6.95
2022-09-26T03:13:52.996Z,6.95
2022-09-26T03:14:56.686Z,6.94
2022-09-26T03:15:54.096Z,6.95
2022-09-26T03:16:53.022Z,6.95
2022-09-26T03:17:52.156Z,6.97
2022-09-26T03:18:53.025Z,6.97
2022-09-26T03:19:52.936Z,6.99
2022-09-26T03:20:52.169Z,7.02
2022-09-26T03:21:52.140Z,7.04
2022-09-26T03:22:52.908Z,7.07
2022-09-26T03:23:52.955Z,7.08
2022-09-26T03:24:52.637Z,7.09
2022-09-26T03:25:52.894Z,7.13
2022-09-26T03:26:53.163Z,7.15
2022-09-26T03:27:52.986Z,7.15
2022-09-26T03:28:52.010Z,7.17
2022-09-26T03:29:52.968Z,7.19
2022-09-26T03:30:52.900Z,7.19
2022-09-26T03:31:52.100Z,7.19
2022-09-26T03:32:52.051Z,7.20
2022-09-26T03:33:52.015Z,7.20
2022-09-26T03:34:52.778Z,7.19
2022-09-26T03:35:51.944Z,7.19
2022-09-26T03:36:52.844Z,7.23
2022-09-26T03:37:52.763Z,7.23
2022-09-26T03:38:52.271Z,7.24
2022-09-26T03:39:52.353Z,7.24
2022-09-26T03:40:52.307Z,7.26
2022-09-26T03:41:52.660Z,7.24
2022-09-26T03:42:51.843Z,7.23
2022-09-26T03:43:52.682Z,7.22
2022-09-26T03:44:51.822Z,7.23
2022-09-26T03:45:52.798Z,7.26
2022-09-26T03:46:52.650Z,7.26
2022-09-26T03:47:52.551Z,7.26
2022-09-26T03:48:52.716Z,7.26
2022-09-26T03:49:51.741Z,7.24
2022-09-26T03:50:51.703Z,7.23
2022-09-26T03:51:51.743Z,7.23
2022-09-26T03:52:52.583Z,7.27
2022-09-26T03:53:51.710Z,7.31
2022-09-26T03:54:52.644Z,7.32
2022-09-26T03:55:51.632Z,7.35
2022-09-26T03:56:51.721Z,7.35
2022-09-26T03:57:52.629Z,7.41
2022-09-26T03:58:52.513Z,7.42
2022-09-26T03:59:52.466Z,7.44
2022-09-26T04:00:52.392Z,7.47
2022-09-26T04:01:51.680Z,7.52
2022-09-26T04:02:52.401Z,7.56
2022-09-26T04:03:52.295Z,7.58
2022-09-26T04:04:52.508Z,7.62
2022-09-26T04:05:52.355Z,7.66
2022-09-26T04:06:52.273Z,7.63
2022-09-26T04:07:52.426Z,7.62
2022-09-26T04:08:51.469Z,7.63
2022-09-26T04:09:52.228Z,7.63
2022-09-26T04:10:51.448Z,7.66
2022-09-26T04:11:52.295Z,7.62
2022-09-26T04:12:52.457Z,7.63
2022-09-26T04:13:53.822Z,7.62
2022-09-26T04:14:52.276Z,7.63
2022-09-26T04:15:52.169Z,7.63
2022-09-26T04:16:52.591Z,7.63
2022-09-26T04:17:52.274Z,7.63
2022-09-26T04:18:51.675Z,7.63
2022-09-26T04:19:52.297Z,7.69
2022-09-26T04:20:51.605Z,7.72
2022-09-26T04:21:52.104Z,7.75
2022-09-26T04:22:51.258Z,7.77
2022-09-26T04:23:52.188Z,7.79
2022-09-26T04:24:52.103Z,7.81
2022-09-26T04:25:52.228Z,7.85
2022-09-26T04:26:52.161Z,7.90
2022-09-26T04:27:52.037Z,7.93
2022-09-26T04:28:51.971Z,7.96
2022-09-26T04:29:52.104Z,7.99
2022-09-26T04:30:52.014Z,8.02
2022-09-26T04:31:51.185Z,8.07
2022-09-26T04:32:51.138Z,8.08
2022-09-26T04:33:52.022Z,8.10
2022-09-26T04:34:51.878Z,8.14
2022-09-26T04:35:52.041Z,8.15
2022-09-26T04:36:51.943Z,8.17
2022-09-26T04:37:51.849Z,8.21
2022-09-26T04:38:51.086Z,8.25
2022-09-26T04:39:51.913Z,8.22
2022-09-26T04:40:51.139Z,8.26
2022-09-26T04:41:51.060Z,8.25
2022-09-26T04:42:51.881Z,8.26
2022-09-26T04:43:51.780Z,8.26
2022-09-26T04:44:51.943Z,8.29
2022-09-26T04:45:51.953Z,8.32
2022-09-26T04:46:51.752Z,8.33
2022-09-26T04:47:51.920Z,8.32
2022-09-26T04:48:51.827Z,8.35
2022-09-26T04:49:51.276Z,8.35
2022-09-26T04:50:51.915Z,8.39
2022-09-26T04:51:51.898Z,8.40
2022-09-26T04:52:51.693Z,8.44
2022-09-26T04:53:52.274Z,8.47
2022-09-26T04:54:50.793Z,8.48
2022-09-26T04:55:50.805Z,8.48
2022-09-26T04:56:51.561Z,8.53
2022-09-26T04:57:51.743Z,8.55
2022-09-26T04:58:51.640Z,8.60
2022-09-26T04:59:50.744Z,8.66
2022-09-26T05:00:51.744Z,8.68
2022-09-26T05:01:51.648Z,8.69
2022-09-26T05:02:51.494Z,8.73
2022-09-26T05:03:51.654Z,8.76
2022-09-26T05:04:50.714Z,8.76
2022-09-26T05:05:51.465Z,8.78
2022-09-26T05:06:51.624Z,8.78
2022-09-26T05:07:50.705Z,8.79
2022-09-26T05:08:50.657Z,8.81
2022-09-26T05:09:51.607Z,8.81
2022-09-26T05:10:51.500Z,8.81
2022-09-26T05:11:50.595Z,8.83
2022-09-26T05:12:50.554Z,8.81
2022-09-26T05:13:53.624Z,8.84
2022-09-26T05:14:51.372Z,8.86
2022-09-26T05:15:52.023Z,8.87
2022-09-26T05:16:50.698Z,8.90
2022-09-26T05:17:51.352Z,8.91
2022-09-26T05:18:50.518Z,8.91
2022-09-26T05:19:50.540Z,8.93
2022-09-26T05:20:50.487Z,8.94
2022-09-26T05:21:50.447Z,8.93
2022-09-26T05:22:50.419Z,8.94
2022-09-26T05:23:50.448Z,8.96
2022-09-26T05:24:51.177Z,9.01
2022-09-26T05:25:51.339Z,8.99
2022-09-26T05:26:51.874Z,9.01
2022-09-26T05:27:51.200Z,9.02
2022-09-26T05:28:50.340Z,9.04
2022-09-26T05:29:51.208Z,9.05
2022-09-26T05:30:50.449Z,9.04
2022-09-26T05:31:50.512Z,9.02
2022-09-26T05:32:50.515Z,9.05
2022-09-26T05:33:50.250Z,9.06
2022-09-26T05:34:51.246Z,9.06
2022-09-26T05:35:50.521Z,9.09
2022-09-26T05:36:50.518Z,9.10
2022-09-26T05:37:51.209Z,9.10
2022-09-26T05:38:50.221Z,9.10
2022-09-26T05:39:50.309Z,9.10
2022-09-26T05:40:50.226Z,9.10
2022-09-26T05:41:50.202Z,9.12
2022-09-26T05:42:50.992Z,9.15
2022-09-26T05:43:51.155Z,9.18
2022-09-26T05:44:50.104Z,9.21
2022-09-26T05:45:50.091Z,9.24
2022-09-26T05:46:50.121Z,9.25
2022-09-26T05:47:50.130Z,9.31
2022-09-26T05:48:50.922Z,9.34
2022-09-26T05:49:50.043Z,9.40
2022-09-26T05:50:50.983Z,9.43
2022-09-26T05:51:50.053Z,9.48
2022-09-26T05:52:50.071Z,9.50
2022-09-26T05:53:50.028Z,9.53
2022-09-26T05:54:50.854Z,9.56
2022-09-26T05:55:49.985Z,9.57
2022-09-26T05:56:49.935Z,9.57
2022-09-26T05:57:50.825Z,9.56
2022-09-26T05:58:49.939Z,9.53
2022-09-26T05:59:49.904Z,9.53
2022-09-26T06:00:49.956Z,9.52
2022-09-26T06:01:50.727Z,9.50
2022-09-26T06:02:49.846Z,9.48
2022-09-26T06:03:49.878Z,9.49
2022-09-26T06:04:49.947Z,9.50
2022-09-26T06:05:49.926Z,9.52
2022-09-26T06:06:49.787Z,9.53
2022-09-26T06:07:50.627Z,9.57
2022-09-26T06:08:50.535Z,9.60
2022-09-26T06:09:50.699Z,9.64
2022-09-26T06:10:50.601Z,9.70
2022-09-26T06:11:49.742Z,9.75
2022-09-26T06:12:51.152Z,9.79
2022-09-26T06:13:49.749Z,9.83
2022-09-26T06:14:49.689Z,9.86
2022-09-26T06:15:49.730Z,9.89
2022-09-26T06:16:50.622Z,9.94
2022-09-26T06:17:49.668Z,9.94
2022-09-26T06:18:50.633Z,9.96
2022-09-26T06:19:50.509Z,9.97
2022-09-26T06:20:50.408Z,9.96
2022-09-26T06:21:50.693Z,9.97
2022-09-26T06:22:50.473Z,9.97
2022-09-26T06:23:49.559Z,9.94
2022-09-26T06:24:50.533Z,9.97
2022-09-26T06:25:49.531Z,9.94
2022-09-26T06:26:50.354Z,9.94
2022-09-26T06:27:49.569Z,9.97
2022-09-26T06:28:49.490Z,9.96
2022-09-26T06:29:50.311Z,9.96
2022-09-26T06:30:50.470Z,9.97
2022-09-26T06:31:50.452Z,9.97
2022-09-26T06:32:50.886Z,9.99
2022-09-26T06:33:49.437Z,10.00
2022-09-26T06:34:56.499Z,9.99
2022-09-26T06:35:49.393Z,9.99
2022-09-26T06:36:49.923Z,10.01
2022-09-26T06:37:49.893Z,10.01
2022-09-26T06:38:49.375Z,10.03
2022-09-26T06:39:49.345Z,10.03
2022-09-26T06:40:49.379Z,10.06
2022-09-26T06:41:49.323Z,10.06
2022-09-26T06:42:50.086Z,10.09
2022-09-26T06:43:50.245Z,10.12
2022-09-26T06:44:50.156Z,10.17
2022-09-26T06:45:50.062Z,10.19
2022-09-26T06:46:49.270Z,10.22
2022-09-26T06:47:50.125Z,10.28
2022-09-26T06:48:49.506Z,10.33
2022-09-26T06:49:50.186Z,10.37
2022-09-26T06:50:49.186Z,10.42
2022-09-26T06:51:49.177Z,10.44
2022-09-26T06:52:50.156Z,10.51
2022-09-26T06:53:50.059Z,10.55
2022-09-26T06:54:49.957Z,10.58
2022-09-26T06:55:49.882Z,10.60
2022-09-26T06:56:50.025Z,10.66
2022-09-26T06:57:49.927Z,10.70
2022-09-26T06:58:50.091Z,10.77
2022-09-26T06:59:49.998Z,10.81
2022-09-26T07:00:49.132Z,10.89
2022-09-26T07:01:49.178Z,10.98
2022-09-26T07:02:49.008Z,11.01
2022-09-26T07:03:49.858Z,11.07
2022-09-26T07:04:49.775Z,11.11
2022-09-26T07:05:49.909Z,11.16
2022-09-26T07:06:49.843Z,11.11
2022-09-26T07:07:49.739Z,11.11
2022-09-26T07:09:02.299Z,11.14
2022-09-26T07:09:49.907Z,11.13
2022-09-26T07:10:49.480Z,11.11
2022-09-26T07:12:14.256Z,11.06
2022-09-26T07:12:49.878Z,11.06
2022-09-26T07:13:49.711Z,11.02
2022-09-26T07:14:53.424Z,10.99
2022-09-26T07:15:50.813Z,10.98
2022-09-26T07:16:49.637Z,10.98
2022-09-26T07:17:49.810Z,10.95
2022-09-26T07:18:49.703Z,10.95
2022-09-26T07:19:48.772Z,10.98
2022-09-26T07:20:51.222Z,10.96
2022-09-26T07:21:51.224Z,10.94
2022-09-26T07:22:49.572Z,10.94
2022-09-26T07:23:49.733Z,10.89
2022-09-26T07:24:49.639Z,10.89
2022-09-26T07:25:49.544Z,10.84
2022-09-26T07:26:49.444Z,10.84
2022-09-26T07:27:50.124Z,10.83
2022-09-26T07:28:53.710Z,10.80
2022-09-26T07:29:50.442Z,10.80
2022-09-26T07:30:49.574Z,10.81
2022-09-26T07:31:48.685Z,10.81
2022-09-26T07:32:49.385Z,10.84
2022-09-26T07:33:49.546Z,10.88
2022-09-26T07:34:49.447Z,10.89
2022-09-26T07:35:49.349Z,10.94
2022-09-26T07:36:49.507Z,10.92
2022-09-26T07:37:48.658Z,10.92
2022-09-26T07:38:49.319Z,10.96
2022-09-26T07:39:53.611Z,11.01
2022-09-26T07:40:50.454Z,11.02
2022-09-26T07:41:49.287Z,11.07
2022-09-26T07:43:09.388Z,11.10
2022-09-26T07:45:50.186Z,11.14
2022-09-26T07:46:49.386Z,11.14
2022-09-26T07:47:49.219Z,11.16
2022-09-26T07:48:49.830Z,11.14
2022-09-26T07:49:49.288Z,11.13
2022-09-26T07:50:49.191Z,11.13
2022-09-26T07:51:49.119Z,11.11
2022-09-26T07:52:49.257Z,11.11
2022-09-26T07:53:49.161Z,11.11
2022-09-26T07:54:49.072Z,11.14
2022-09-26T07:55:49.221Z,11.16
2022-09-26T07:56:48.275Z,11.21
2022-09-26T07:57:49.031Z,11.29
2022-09-26T07:58:48.241Z,11.35
2022-09-26T07:59:49.091Z,11.43
2022-09-26T08:00:49.000Z,11.52
2022-09-26T08:01:49.241Z,11.62
2022-09-26T08:02:48.228Z,11.71
2022-09-26T08:03:48.970Z,11.83
2022-09-26T08:04:49.123Z,11.94
2022-09-26T08:05:49.038Z,12.01
2022-09-26T08:06:48.937Z,12.08
2022-09-26T08:07:48.123Z,12.19
2022-09-26T08:08:49.002Z,12.24
2022-09-26T08:09:49.527Z,12.30
2022-09-26T08:10:49.067Z,12.39
2022-09-26T08:11:48.081Z,12.45
2022-09-26T08:12:48.865Z,12.56
2022-09-26T08:13:48.035Z,12.64
2022-09-26T08:14:48.936Z,12.75
2022-09-26T08:15:48.905Z,12.82
2022-09-26T08:16:49.128Z,12.85
2022-09-26T08:17:47.974Z,12.97
2022-09-26T08:18:47.979Z,13.09
2022-09-26T08:19:49.406Z,13.20
2022-09-26T08:20:48.869Z,13.29
2022-09-26T08:21:47.907Z,13.30
2022-09-26T08:22:48.677Z,13.32
2022-09-26T08:23:48.838Z,13.41
2022-09-26T08:24:48.230Z,13.38
2022-09-26T08:25:47.869Z,13.32
2022-09-26T08:26:48.809Z,13.30
2022-09-26T08:27:48.711Z,13.27
2022-09-26T08:28:48.610Z,13.22
2022-09-26T08:29:48.771Z,13.29
2022-09-26T08:30:47.781Z,13.29
2022-09-26T08:31:48.670Z,13.33
2022-09-26T08:32:47.750Z,13.37
2022-09-26T08:33:48.647Z,13.43
2022-09-26T08:34:48.551Z,13.47
2022-09-26T08:35:47.703Z,13.56
2022-09-26T08:36:47.902Z,13.62
2022-09-26T08:37:48.537Z,13.70
2022-09-26T08:38:48.680Z,13.80
2022-09-26T08:39:47.653Z,13.88
2022-09-26T08:40:48.527Z,13.99
2022-09-26T08:41:47.624Z,13.95
2022-09-26T08:42:48.558Z,14.02
2022-09-26T08:43:48.459Z,14.01
2022-09-26T08:44:47.608Z,13.96
2022-09-26T08:45:48.121Z,14.01
2022-09-26T08:46:48.463Z,14.02
2022-09-26T08:47:47.577Z,13.99
2022-09-26T08:48:47.567Z,14.02
2022-09-26T08:49:48.397Z,14.07
2022-09-26T08:50:47.557Z,14.10
2022-09-26T08:51:48.467Z,14.09
2022-09-26T08:52:47.473Z,14.09
2022-09-26T08:53:48.260Z,14.02
2022-09-26T08:54:47.509Z,14.04
2022-09-26T08:55:48.347Z,13.96
2022-09-26T08:56:47.461Z,13.92
2022-09-26T08:57:47.469Z,13.96
2022-09-26T08:58:47.428Z,13.98
2022-09-26T08:59:47.429Z,14.01
2022-09-26T09:00:47.530Z,14.04
2022-09-26T09:01:47.619Z,14.04
2022-09-26T09:02:47.496Z,13.95
2022-09-26T09:03:47.320Z,13.99
2022-09-26T09:04:52.967Z,13.99
2022-09-26T09:05:49.162Z,14.01
2022-09-26T09:06:47.512Z,14.02
2022-09-26T09:07:47.433Z,14.09
2022-09-26T09:08:47.345Z,14.16
2022-09-26T09:09:47.355Z,14.19
2022-09-26T09:10:48.172Z,14.16
2022-09-26T09:11:51.094Z,14.10
2022-09-26T09:12:47.205Z,14.13
2022-09-26T09:13:47.264Z,14.17
2022-09-26T09:14:57.922Z,14.19
2022-09-26T09:15:48.318Z,14.20
2022-09-26T09:16:48.104Z,14.25
2022-09-26T09:17:47.262Z,14.24
2022-09-26T09:18:47.159Z,14.28
2022-09-26T09:19:47.215Z,14.28
2022-09-26T09:20:47.086Z,14.29
2022-09-26T09:21:47.118Z,14.37
2022-09-26T09:22:47.149Z,14.47
2022-09-26T09:23:47.056Z,14.53
2022-09-26T09:24:47.058Z,14.57
2022-09-26T09:25:47.043Z,14.62
2022-09-26T09:28:00.122Z,14.56
2022-09-26T09:28:48.746Z,14.54
2022-09-26T09:29:49.148Z,14.54
2022-09-26T09:30:47.027Z,14.60
2022-09-26T09:31:46.959Z,14.65
2022-09-26T09:32:47.083Z,14.74
2022-09-26T09:33:46.961Z,14.83
2022-09-26T09:34:50.248Z,14.90
2022-09-26T09:35:47.880Z,14.93
2022-09-26T09:36:47.235Z,14.93
2022-09-26T09:37:46.892Z,14.93
2022-09-26T09:38:47.781Z,14.95
2022-09-26T09:39:46.953Z,14.93
2022-09-26T09:40:46.840Z,14.95
2022-09-26T09:41:47.019Z,15.05
2022-09-26T09:42:46.855Z,15.12
2022-09-26T09:43:46.792Z,15.15
2022-09-26T09:44:47.279Z,15.20
2022-09-26T09:45:46.754Z,15.20
2022-09-26T09:46:46.834Z,15.20
2022-09-26T09:47:46.785Z,15.19
2022-09-26T09:48:46.970Z,15.28
2022-09-26T09:49:46.795Z,15.38
2022-09-26T09:50:46.747Z,15.57
2022-09-26T09:51:47.563Z,15.68
2022-09-26T09:52:46.715Z,15.74
2022-09-26T09:53:47.626Z,15.75
2022-09-26T09:54:46.627Z,15.78
2022-09-26T09:55:46.637Z,15.84
2022-09-26T09:56:47.663Z,15.82
2022-09-26T09:57:47.532Z,15.78
2022-09-26T09:58:46.578Z,15.70
2022-09-26T09:59:46.588Z,15.52
2022-09-26T10:00:51.236Z,15.48
2022-09-26T10:01:46.621Z,15.45
2022-09-26T10:02:47.396Z,15.45
2022-09-26T10:03:46.540Z,15.39
2022-09-26T10:04:46.540Z,15.36
2022-09-26T10:05:46.459Z,15.42
2022-09-26T10:06:47.366Z,15.48
2022-09-26T10:07:47.314Z,15.59
2022-09-26T10:08:47.212Z,15.67
2022-09-26T10:09:47.368Z,15.78
2022-09-26T10:10:47.275Z,15.82
2022-09-26T10:11:50.384Z,15.99
2022-09-26T10:12:47.424Z,16.07
2022-09-26T10:13:46.477Z,16.12
2022-09-26T10:14:46.356Z,16.06
2022-09-26T10:15:47.008Z,15.97
2022-09-26T10:16:47.206Z,15.94
2022-09-26T10:18:06.609Z,15.86
2022-09-26T10:18:47.307Z,15.84
2022-09-26T10:19:46.968Z,15.97
2022-09-26T10:20:46.621Z,16.07
2022-09-26T10:21:46.222Z,16.12
2022-09-26T10:22:46.278Z,16.11
2022-09-26T10:23:47.056Z,16.03
2022-09-26T10:24:46.950Z,15.85
2022-09-26T10:25:47.113Z,15.60
2022-09-26T10:26:46.307Z,15.41
2022-09-26T10:27:46.920Z,15.21
2022-09-26T10:28:46.163Z,15.05
2022-09-26T10:29:46.188Z,15.01
2022-09-26T10:30:46.982Z,14.99
2022-09-26T10:31:46.807Z,14.88
2022-09-26T10:32:46.116Z,14.78
2022-09-26T10:33:46.093Z,14.62
2022-09-26T10:34:46.894Z,14.50
2022-09-26T10:35:46.109Z,14.38
2022-09-26T10:36:46.373Z,14.37
2022-09-26T10:37:46.073Z,14.38
2022-09-26T10:38:45.994Z,14.35
2022-09-26T10:39:46.025Z,14.31
2022-09-26T10:40:47.030Z,14.25
2022-09-26T10:41:46.024Z,14.27
2022-09-26T10:42:45.964Z,14.31
2022-09-26T10:43:45.956Z,14.34
2022-09-26T10:44:45.935Z,14.42
2022-09-26T10:45:46.746Z,14.46
2022-09-26T10:46:45.954Z,14.56
2022-09-26T10:47:45.980Z,14.62
2022-09-26T10:48:45.907Z,14.72
2022-09-26T10:49:45.868Z,14.81
2022-09-26T10:50:46.352Z,14.87
2022-09-26T10:51:46.649Z,14.94
2022-09-26T10:52:46.638Z,15.03
2022-09-26T10:53:45.818Z,15.06
2022-09-26T10:54:45.846Z,15.03
2022-09-26T10:55:46.540Z,15.06
2022-09-26T10:56:45.821Z,15.02
2022-09-26T10:57:45.869Z,14.93
2022-09-26T10:58:45.770Z,14.87
2022-09-26T10:59:45.843Z,14.93
2022-09-26T11:00:46.003Z,14.93
2022-09-26T11:01:45.943Z,14.91
2022-09-26T11:02:45.701Z,15.02
2022-09-26T11:03:46.607Z,15.12
2022-09-26T11:04:45.698Z,15.28
2022-09-26T11:05:47.173Z,15.39
2022-09-26T11:06:45.720Z,15.60
2022-09-26T11:07:45.595Z,15.78
2022-09-26T11:08:45.585Z,15.89
2022-09-26T11:09:45.635Z,15.97
2022-09-26T11:10:47.006Z,15.94
2022-09-26T11:11:45.604Z,16.04
2022-09-26T11:12:45.686Z,16.04
2022-09-26T11:13:46.343Z,16.11
2022-09-26T11:14:45.595Z,16.35
2022-09-26T11:15:46.480Z,16.70
2022-09-26T11:16:45.511Z,16.98
2022-09-26T11:17:45.508Z,17.17
2022-09-26T11:18:45.538Z,17.15
2022-09-26T11:19:48.123Z,17.38
2022-09-26T11:20:46.233Z,17.46
2022-09-26T11:21:45.446Z,17.63
2022-09-26T11:22:45.448Z,17.74
2022-09-26T11:23:45.429Z,17.71
2022-09-26T11:24:45.399Z,17.55
2022-09-26T11:25:45.367Z,17.43
2022-09-26T11:26:45.374Z,17.17
2022-09-26T11:27:46.280Z,16.98
2022-09-26T11:28:46.182Z,16.75
2022-09-26T11:29:45.522Z,16.52
2022-09-26T11:30:46.341Z,16.44
2022-09-26T11:31:45.427Z,16.37
2022-09-26T11:32:46.058Z,16.42
2022-09-26T11:33:46.215Z,16.45
2022-09-26T11:34:45.271Z,16.53
2022-09-26T11:35:45.259Z,16.63
2022-09-26T11:36:46.210Z,16.71
2022-09-26T11:37:46.087Z,16.65
2022-09-26T11:38:45.996Z,16.45
2022-09-26T11:39:45.167Z,16.31
2022-09-26T11:40:45.208Z,16.20
2022-09-26T11:41:45.140Z,16.14
2022-09-26T11:42:45.349Z,16.07
2022-09-26T11:43:45.104Z,15.93
2022-09-26T11:44:45.934Z,15.81
2022-09-26T11:45:47.638Z,15.66
2022-09-26T11:46:45.653Z,15.49
2022-09-26T11:47:45.028Z,15.36
2022-09-26T11:48:46.531Z,15.26
2022-09-26T11:49:45.014Z,15.11
2022-09-26T11:50:45.862Z,14.91
2022-09-26T11:51:45.062Z,14.74
2022-09-26T11:52:49.048Z,14.57
2022-09-26T11:53:45.834Z,14.39
2022-09-26T11:54:45.279Z,14.24
2022-09-26T11:55:45.017Z,14.10
2022-09-26T11:56:45.796Z,13.98
2022-09-26T11:57:44.937Z,13.84
2022-09-26T11:58:45.073Z,13.70
2022-09-26T11:59:45.115Z,13.65
2022-09-26T12:00:45.676Z,13.58
2022-09-26T12:01:45.835Z,13.58
2022-09-26T12:02:45.821Z,13.59
2022-09-26T12:03:44.978Z,13.62
2022-09-26T12:04:44.837Z,13.70
2022-09-26T12:05:45.268Z,13.74
2022-09-26T12:06:45.089Z,13.76
2022-09-26T12:07:44.840Z,13.79
2022-09-26T12:08:44.759Z,13.81
2022-09-26T12:09:44.850Z,13.77
2022-09-26T12:10:45.523Z,13.76
2022-09-26T12:11:45.657Z,13.67
2022-09-26T12:12:44.718Z,13.59
2022-09-26T12:13:44.682Z,13.55
2022-09-26T12:14:44.678Z,13.49
2022-09-26T12:15:44.707Z,13.51
2022-09-26T12:16:44.750Z,13.58
2022-09-26T12:17:44.701Z,13.62
2022-09-26T12:18:44.811Z,13.73
2022-09-26T12:19:44.698Z,13.83
2022-09-26T12:20:44.632Z,13.89
2022-09-26T12:21:44.642Z,13.91
2022-09-26T12:22:44.713Z,13.92
2022-09-26T12:23:44.665Z,13.95
2022-09-26T12:24:44.561Z,13.99
2022-09-26T12:25:44.595Z,14.10
2022-09-26T12:26:45.484Z,14.14
2022-09-26T12:27:45.396Z,14.17
2022-09-26T12:28:45.287Z,14.17
2022-09-26T12:29:44.496Z,14.20
2022-09-26T12:30:45.423Z,14.20
2022-09-26T12:31:44.505Z,14.27
2022-09-26T12:32:44.467Z,14.27
2022-09-26T12:33:44.567Z,14.29
2022-09-26T12:34:44.416Z,14.32
2022-09-26T12:35:44.406Z,14.31
2022-09-26T12:36:45.298Z,14.27
2022-09-26T12:37:44.499Z,14.19
2022-09-26T12:38:45.096Z,14.16
2022-09-26T12:39:45.260Z,14.09
2022-09-26T12:40:44.458Z,14.04
2022-09-26T12:41:44.281Z,14.01
2022-09-26T12:42:44.306Z,13.92
2022-09-26T12:43:44.405Z,13.95
2022-09-26T12:44:44.404Z,13.96
2022-09-26T12:45:44.303Z,14.02
2022-09-26T12:46:44.402Z,14.10
2022-09-26T12:47:44.393Z,14.21
2022-09-26T12:48:44.269Z,14.32
2022-09-26T12:49:45.142Z,14.37
2022-09-26T12:50:44.963Z,14.34
2022-09-26T12:51:45.168Z,14.38
2022-09-26T12:52:45.031Z,14.32
2022-09-26T12:53:44.254Z,14.20
2022-09-26T12:54:45.095Z,14.12
2022-09-26T12:55:44.443Z,13.98
2022-09-26T12:56:44.205Z,13.91
2022-09-26T12:57:44.455Z,13.87
2022-09-26T12:58:44.085Z,13.79
2022-09-26T12:59:44.089Z,13.71
2022-09-26T13:00:44.097Z,13.67
2022-09-26T13:01:45.035Z,13.65
2022-09-26T13:02:44.180Z,13.61
2022-09-26T13:03:44.743Z,13.58
2022-09-26T13:04:44.155Z,13.52
2022-09-26T13:05:43.954Z,13.49
2022-09-26T13:07:02.150Z,13.47
2022-09-26T13:07:44.961Z,13.47
2022-09-26T13:08:43.893Z,13.47